sensor_id;sensor_type;location;lat;lon;timestamp;pressure;altitude;pressure_sealevel;temperature;humidity
71043;BME280;58696;52.134;5.500;2023-02-19T00:01:47;101877.06;;;9.43;96.97
71043;BME280;58696;52.134;5.500;2023-02-19T00:04:16;101875.47;;;9.42;96.73
71043;BME280;58696;52.134;5.500;2023-02-19T00:06:47;101875.63;;;9.41;97.02
71043;BME280;58696;52.134;5.500;2023-02-19T00:09:16;101875.63;;;9.41;97.31
71043;BME280;58696;52.134;5.500;2023-02-19T00:11:44;101874.13;;;9.38;96.96
71043;BME280;58696;52.134;5.500;2023-02-19T00:14:14;101877.50;;;9.39;97.05
71043;BME280;58696;52.134;5.500;2023-02-19T00:16:44;101882.63;;;9.39;96.79
71043;BME280;58696;52.134;5.500;2023-02-19T00:19:15;101878.47;;;9.38;97.02
71043;BME280;58696;52.134;5.500;2023-02-19T00:21:42;101869.97;;;9.37;97.09
71043;BME280;58696;52.134;5.500;2023-02-19T00:24:10;101877.81;;;9.36;97.41
71043;BME280;58696;52.134;5.500;2023-02-19T00:26:37;101881.03;;;9.38;97.24
71043;BME280;58696;52.134;5.500;2023-02-19T00:29:11;101879.25;;;9.38;97.48
71043;BME280;58696;52.134;5.500;2023-02-19T00:31:38;101881.66;;;9.40;97.35
71043;BME280;58696;52.134;5.500;2023-02-19T00:34:06;101884.25;;;9.40;97.38
71043;BME280;58696;52.134;5.500;2023-02-19T00:36:36;101886.81;;;9.40;97.47
71043;BME280;58696;52.134;5.500;2023-02-19T00:39:05;101882.63;;;9.39;97.26
71043;BME280;58696;52.134;5.500;2023-02-19T00:41:34;101886.97;;;9.38;97.36
71043;BME280;58696;52.134;5.500;2023-02-19T00:44:05;101877.00;;;9.35;97.48
71043;BME280;58696;52.134;5.500;2023-02-19T00:46:37;101890.66;;;9.36;97.63
71043;BME280;58696;52.134;5.500;2023-02-19T00:49:07;101888.72;;;9.38;97.52
71043;BME280;58696;52.134;5.500;2023-02-19T00:51:37;101887.28;;;9.35;97.54
71043;BME280;58696;52.134;5.500;2023-02-19T00:54:04;101885.34;;;9.37;97.49
71043;BME280;58696;52.134;5.500;2023-02-19T00:56:33;101885.34;;;9.37;97.23
71043;BME280;58696;52.134;5.500;2023-02-19T00:59:00;101888.72;;;9.38;97.66
71043;BME280;58696;52.134;5.500;2023-02-19T01:01:26;101891.28;;;9.38;97.52
71043;BME280;58696;52.134;5.500;2023-02-19T01:03:53;101889.53;;;9.38;97.63
71043;BME280;58696;52.134;5.500;2023-02-19T01:06:20;101889.69;;;9.37;97.63
71043;BME280;58696;52.134;5.500;2023-02-19T01:08:47;101891.28;;;9.38;97.70
71043;BME280;58696;52.134;5.500;2023-02-19T01:11:17;101894.81;;;9.37;97.57
71043;BME280;58696;52.134;5.500;2023-02-19T01:13:46;101899.78;;;9.38;97.61
71043;BME280;58696;52.134;5.500;2023-02-19T01:16:21;101895.63;;;9.37;97.62
71043;BME280;58696;52.134;5.500;2023-02-19T01:18:53;101895.63;;;9.37;97.56
71043;BME280;58696;52.134;5.500;2023-02-19T01:21:21;101911.81;;;9.38;97.30
71043;BME280;58696;52.134;5.500;2023-02-19T01:23:50;101906.97;;;9.35;97.52
71043;BME280;58696;52.134;5.500;2023-02-19T01:26:21;101913.72;;;9.36;97.35
71043;BME280;58696;52.134;5.500;2023-02-19T01:28:48;101908.59;;;9.36;97.31
71043;BME280;58696;52.134;5.500;2023-02-19T01:31:21;101910.34;;;9.35;97.27
71043;BME280;58696;52.134;5.500;2023-02-19T01:33:51;101917.38;;;9.33;97.31
71043;BME280;58696;52.134;5.500;2023-02-19T01:36:25;101917.69;;;9.30;97.34
71043;BME280;58696;52.134;5.500;2023-02-19T01:38:52;101914.31;;;9.30;96.98
71043;BME280;58696;52.134;5.500;2023-02-19T01:41:23;101916.06;;;9.29;97.31
71043;BME280;58696;52.134;5.500;2023-02-19T01:46:30;101914.75;;;9.25;96.97
71043;BME280;58696;52.134;5.500;2023-02-19T01:49:01;101917.44;;;9.23;97.11
71043;BME280;58696;52.134;5.500;2023-02-19T01:51:38;101921.13;;;9.21;97.01
71043;BME280;58696;52.134;5.500;2023-02-19T01:54:12;101917.91;;;9.19;96.95
71043;BME280;58696;52.134;5.500;2023-02-19T01:56:44;101917.22;;;9.17;97.13
71043;BME280;58696;52.134;5.500;2023-02-19T01:59:15;101924.28;;;9.15;97.13
71043;BME280;58696;52.134;5.500;2023-02-19T02:01:46;101927.00;;;9.13;97.05
71043;BME280;58696;52.134;5.500;2023-02-19T02:04:17;101924.56;;;9.12;97.15
71043;BME280;58696;52.134;5.500;2023-02-19T02:06:48;101923.75;;;9.11;97.05
71043;BME280;58696;52.134;5.500;2023-02-19T02:09:18;101919.72;;;9.09;97.14
71043;BME280;58696;52.134;5.500;2023-02-19T02:12:04;101919.84;;;9.07;97.16
71043;BME280;58696;52.134;5.500;2023-02-19T02:14:35;101928.66;;;9.05;97.06
71043;BME280;58696;52.134;5.500;2023-02-19T02:20:00;101925.28;;;9.04;97.24
71043;BME280;58696;52.134;5.500;2023-02-19T02:22:34;101929.47;;;9.05;97.14
71043;BME280;58696;52.134;5.500;2023-02-19T02:25:26;101927.06;;;9.04;97.20
71043;BME280;58696;52.134;5.500;2023-02-19T02:28:09;101928.66;;;9.05;97.12
71043;BME280;58696;52.134;5.500;2023-02-19T02:30:49;101927.16;;;9.02;97.28
71043;BME280;58696;52.134;5.500;2023-02-19T02:33:25;101928.94;;;9.02;97.22
71043;BME280;58696;52.134;5.500;2023-02-19T02:35:58;101935.00;;;9.01;97.33
71043;BME280;58696;52.134;5.500;2023-02-19T02:38:31;101936.78;;;9.00;97.29
71043;BME280;58696;52.134;5.500;2023-02-19T02:41:03;101928.56;;;8.96;97.32
71043;BME280;58696;52.134;5.500;2023-02-19T02:43:33;101936.41;;;8.95;97.37
71043;BME280;58696;52.134;5.500;2023-02-19T02:46:02;101943.28;;;8.94;97.32
71043;BME280;58696;52.134;5.500;2023-02-19T02:48:33;101946.00;;;8.93;97.31
71043;BME280;58696;52.134;5.500;2023-02-19T02:51:26;101935.88;;;8.91;97.37
71043;BME280;58696;52.134;5.500;2023-02-19T02:54:15;101938.44;;;8.91;97.47
71043;BME280;58696;52.134;5.500;2023-02-19T02:57:04;101941.16;;;8.90;97.43
71043;BME280;58696;52.134;5.500;2023-02-19T02:59:35;101947.06;;;8.90;97.40
71043;BME280;58696;52.134;5.500;2023-02-19T03:02:07;101946.28;;;8.90;97.24
71043;BME280;58696;52.134;5.500;2023-02-19T03:07:38;101950.59;;;8.89;97.36
71043;BME280;58696;52.134;5.500;2023-02-19T03:10:12;101952.50;;;8.87;97.40
71043;BME280;58696;52.134;5.500;2023-02-19T03:12:40;101949.16;;;8.87;97.20
71043;BME280;58696;52.134;5.500;2023-02-19T03:15:36;101964.38;;;8.88;97.15
71043;BME280;58696;52.134;5.500;2023-02-19T03:18:25;101958.28;;;8.89;96.99
71043;BME280;58696;52.134;5.500;2023-02-19T03:21:14;101965.03;;;8.90;97.32
71043;BME280;58696;52.134;5.500;2023-02-19T03:23:45;101961.66;;;8.90;97.19
71043;BME280;58696;52.134;5.500;2023-02-19T03:26:32;101956.53;;;8.90;97.20
71043;BME280;58696;52.134;5.500;2023-02-19T03:29:03;101969.34;;;8.90;97.15
71043;BME280;58696;52.134;5.500;2023-02-19T03:31:52;101963.41;;;8.89;97.15
71043;BME280;58696;52.134;5.500;2023-02-19T03:34:36;101971.63;;;8.93;97.26
71043;BME280;58696;52.134;5.500;2023-02-19T03:39:54;101968.41;;;8.91;97.25
71043;BME280;58696;52.134;5.500;2023-02-19T03:42:29;101977.03;;;8.90;97.18
71043;BME280;58696;52.134;5.500;2023-02-19T03:47:56;101972.22;;;8.87;97.20
71043;BME280;58696;52.134;5.500;2023-02-19T03:51:17;101978.16;;;8.87;97.20
71043;BME280;58696;52.134;5.500;2023-02-19T03:53:33;101985.53;;;8.90;97.05
71043;BME280;58696;52.134;5.500;2023-02-19T03:56:06;101991.47;;;8.91;97.09
71043;BME280;58696;52.134;5.500;2023-02-19T04:01:18;101989.34;;;8.86;97.24
71043;BME280;58696;52.134;5.500;2023-02-19T04:06:26;102004.84;;;8.85;97.08
71043;BME280;58696;52.134;5.500;2023-02-19T04:08:58;101999.88;;;8.83;97.17
71043;BME280;58696;52.134;5.500;2023-02-19T04:11:29;102009.31;;;8.83;97.18
71043;BME280;58696;52.134;5.500;2023-02-19T04:16:37;102009.47;;;8.81;97.10
71043;BME280;58696;52.134;5.500;2023-02-19T04:19:11;102018.09;;;8.80;97.06
71043;BME280;58696;52.134;5.500;2023-02-19T04:21:40;102030.09;;;8.80;97.22
71043;BME280;58696;52.134;5.500;2023-02-19T04:24:15;102029.28;;;8.79;97.02
71043;BME280;58696;52.134;5.500;2023-02-19T04:26:48;102028.63;;;8.77;97.16
71043;BME280;58696;52.134;5.500;2023-02-19T04:29:15;102023.66;;;8.76;97.24
71043;BME280;58696;52.134;5.500;2023-02-19T04:31:43;102039.97;;;8.75;97.12
71043;BME280;58696;52.134;5.500;2023-02-19T04:34:10;102045.09;;;8.75;97.40
71043;BME280;58696;52.134;5.500;2023-02-19T04:36:36;102045.25;;;8.73;97.33
71043;BME280;58696;52.134;5.500;2023-02-19T04:39:03;102052.13;;;8.73;97.24
71043;BME280;58696;52.134;5.500;2023-02-19T04:41:29;102051.47;;;8.71;97.56
71043;BME280;58696;52.134;5.500;2023-02-19T04:43:56;102059.41;;;8.67;97.28
71043;BME280;58696;52.134;5.500;2023-02-19T04:46:25;102072.22;;;8.67;97.44
71043;BME280;58696;52.134;5.500;2023-02-19T04:48:51;102072.22;;;8.67;97.87
71043;BME280;58696;52.134;5.500;2023-02-19T04:51:18;102078.97;;;8.68;97.63
71043;BME280;58696;52.134;5.500;2023-02-19T04:53:44;102073.84;;;8.68;97.34
71043;BME280;58696;52.134;5.500;2023-02-19T04:56:13;102073.03;;;8.68;97.50
71043;BME280;58696;52.134;5.500;2023-02-19T04:58:43;102079.78;;;8.69;97.44
71043;BME280;58696;52.134;5.500;2023-02-19T05:01:12;102085.72;;;8.69;97.45
71043;BME280;58696;52.134;5.500;2023-02-19T05:03:40;102095.97;;;8.69;97.81
71043;BME280;58696;52.134;5.500;2023-02-19T05:06:09;102099.34;;;8.70;97.52
71043;BME280;58696;52.134;5.500;2023-02-19T05:08:38;102090.97;;;8.68;97.47
71043;BME280;58696;52.134;5.500;2023-02-19T05:11:07;102099.63;;;8.67;97.57
71043;BME280;58696;52.134;5.500;2023-02-19T05:13:37;102094.34;;;8.68;97.35
71043;BME280;58696;52.134;5.500;2023-02-19T05:16:08;102095.28;;;8.67;97.52
71043;BME280;58696;52.134;5.500;2023-02-19T05:18:37;102102.31;;;8.65;97.53
71043;BME280;58696;52.134;5.500;2023-02-19T05:21:03;102098.97;;;8.65;97.43
71043;BME280;58696;52.134;5.500;2023-02-19T05:23:32;102113.38;;;8.66;97.62
71043;BME280;58696;52.134;5.500;2023-02-19T05:26:11;102113.25;;;8.67;97.61
71043;BME280;58696;52.134;5.500;2023-02-19T05:28:40;102111.63;;;8.66;97.49
71043;BME280;58696;52.134;5.500;2023-02-19T05:31:07;102117.81;;;8.64;97.52
71043;BME280;58696;52.134;5.500;2023-02-19T05:33:37;102123.91;;;8.63;97.47
71043;BME280;58696;52.134;5.500;2023-02-19T05:36:07;102123.09;;;8.62;97.52
71043;BME280;58696;52.134;5.500;2023-02-19T05:38:35;102121.63;;;8.60;97.57
71043;BME280;58696;52.134;5.500;2023-02-19T05:41:13;102114.06;;;8.58;97.73
71043;BME280;58696;52.134;5.500;2023-02-19T05:43:42;102119.19;;;8.58;97.77
71043;BME280;58696;52.134;5.500;2023-02-19T05:46:13;102126.88;;;8.58;97.59
71043;BME280;58696;52.134;5.500;2023-02-19T05:48:40;102126.06;;;8.58;97.74
71043;BME280;58696;52.134;5.500;2023-02-19T05:51:10;102130.38;;;8.57;97.79
71043;BME280;58696;52.134;5.500;2023-02-19T05:53:43;102132.13;;;8.57;97.71
71043;BME280;58696;52.134;5.500;2023-02-19T05:56:37;102124.75;;;8.54;97.70
71043;BME280;58696;52.134;5.500;2023-02-19T06:01:34;102137.53;;;8.54;97.64
71043;BME280;58696;52.134;5.500;2023-02-19T06:04:00;102134.03;;;8.55;97.65
71043;BME280;58696;52.134;5.500;2023-02-19T06:06:34;102140.91;;;8.54;97.61
71043;BME280;58696;52.134;5.500;2023-02-19T06:09:05;102141.72;;;8.55;97.61
71043;BME280;58696;52.134;5.500;2023-02-19T06:11:32;102147.66;;;8.55;97.63
71043;BME280;58696;52.134;5.500;2023-02-19T06:13:59;102149.25;;;8.56;97.46
71043;BME280;58696;52.134;5.500;2023-02-19T06:16:27;102146.69;;;8.56;97.49
71043;BME280;58696;52.134;5.500;2023-02-19T06:18:53;102158.84;;;8.54;97.28
71043;BME280;58696;52.134;5.500;2023-02-19T06:21:21;102161.53;;;8.53;97.34
71043;BME280;58696;52.134;5.500;2023-02-19T06:23:48;102168.56;;;8.51;97.24
71043;BME280;58696;52.134;5.500;2023-02-19T06:26:22;102183.13;;;8.50;97.24
71043;BME280;58696;52.134;5.500;2023-02-19T06:28:50;102189.06;;;8.51;96.99
71043;BME280;58696;52.134;5.500;2023-02-19T06:31:19;102181.50;;;8.49;97.13
71043;BME280;58696;52.134;5.500;2023-02-19T06:33:48;102188.50;;;8.47;97.31
71043;BME280;58696;52.134;5.500;2023-02-19T06:36:25;102191.19;;;8.46;97.01
71043;BME280;58696;52.134;5.500;2023-02-19T06:38:53;102192.00;;;8.46;97.08
71043;BME280;58696;52.134;5.500;2023-02-19T06:41:24;102194.03;;;8.42;97.08
71043;BME280;58696;52.134;5.500;2023-02-19T06:43:51;102196.59;;;8.42;96.98
71043;BME280;58696;52.134;5.500;2023-02-19T06:46:17;102200.09;;;8.41;97.15
71043;BME280;58696;52.134;5.500;2023-02-19T06:48:44;102204.56;;;8.39;97.29
71043;BME280;58696;52.134;5.500;2023-02-19T06:51:15;102204.41;;;8.41;97.25
71043;BME280;58696;52.134;5.500;2023-02-19T06:53:46;102207.13;;;8.39;97.34
71043;BME280;58696;52.134;5.500;2023-02-19T06:58:48;102217.50;;;8.38;97.39
71043;BME280;58696;52.134;5.500;2023-02-19T07:01:17;102219.25;;;8.37;97.34
71043;BME280;58696;52.134;5.500;2023-02-19T07:03:46;102219.25;;;8.37;97.55
71043;BME280;58696;52.134;5.500;2023-02-19T07:06:13;102225.41;;;8.35;97.62
71043;BME280;58696;52.134;5.500;2023-02-19T07:08:40;102239.03;;;8.35;97.50
71043;BME280;58696;52.134;5.500;2023-02-19T07:11:09;102239.03;;;8.35;97.59
71043;BME280;58696;52.134;5.500;2023-02-19T07:13:37;102244.03;;;8.37;97.40
71043;BME280;58696;52.134;5.500;2023-02-19T07:16:07;102246.47;;;8.38;97.57
71043;BME280;58696;52.134;5.500;2023-02-19T07:18:34;102243.94;;;8.38;97.37
71043;BME280;58696;52.134;5.500;2023-02-19T07:21:05;102254.16;;;8.38;97.49
71043;BME280;58696;52.134;5.500;2023-02-19T07:23:33;102272.09;;;8.38;97.54
71043;BME280;58696;52.134;5.500;2023-02-19T07:26:04;102266.03;;;8.39;97.28
71043;BME280;58696;52.134;5.500;2023-02-19T07:28:39;102275.47;;;8.39;97.19
71043;BME280;58696;52.134;5.500;2023-02-19T07:31:06;102281.53;;;8.38;97.22
71043;BME280;58696;52.134;5.500;2023-02-19T07:33:33;102268.59;;;8.39;97.39
71043;BME280;58696;52.134;5.500;2023-02-19T07:35:59;102272.09;;;8.38;97.29
71043;BME280;58696;52.134;5.500;2023-02-19T07:38:28;102286.38;;;8.41;97.41
71043;BME280;58696;52.134;5.500;2023-02-19T07:40:57;102287.88;;;8.43;97.32
71043;BME280;58696;52.134;5.500;2023-02-19T07:43:26;102288.41;;;8.47;97.21
71043;BME280;58696;52.134;5.500;2023-02-19T07:45:52;102281.28;;;8.51;97.07
71043;BME280;58696;52.134;5.500;2023-02-19T07:48:20;102281.28;;;8.51;97.17
71043;BME280;58696;52.134;5.500;2023-02-19T07:50:57;102281.84;;;8.54;97.05
71043;BME280;58696;52.134;5.500;2023-02-19T07:53:25;102290.06;;;8.58;97.11
71043;BME280;58696;52.134;5.500;2023-02-19T07:56:00;102302.75;;;8.59;96.91
71043;BME280;58696;52.134;5.500;2023-02-19T07:58:28;102293.31;;;8.60;97.12
71043;BME280;58696;52.134;5.500;2023-02-19T08:00:57;102308.41;;;8.63;96.98
71043;BME280;58696;52.134;5.500;2023-02-19T08:03:31;102306.66;;;8.63;96.76
71043;BME280;58696;52.134;5.500;2023-02-19T08:05:59;102307.75;;;8.61;96.75
71043;BME280;58696;52.134;5.500;2023-02-19T08:08:25;102305.97;;;8.61;96.95
71043;BME280;58696;52.134;5.500;2023-02-19T08:10:51;102320.28;;;8.64;96.91
71043;BME280;58696;52.134;5.500;2023-02-19T08:13:39;102316.66;;;8.66;96.84
71043;BME280;58696;52.134;5.500;2023-02-19T08:18:49;102325.41;;;8.64;96.82
71043;BME280;58696;52.134;5.500;2023-02-19T08:21:20;102327.16;;;8.63;96.85
71043;BME280;58696;52.134;5.500;2023-02-19T08:23:47;102332.16;;;8.65;96.80
71043;BME280;58696;52.134;5.500;2023-02-19T08:26:17;102336.34;;;8.66;96.92
71043;BME280;58696;52.134;5.500;2023-02-19T08:28:49;102342.28;;;8.66;96.83
71043;BME280;58696;52.134;5.500;2023-02-19T08:31:15;102352.53;;;8.66;96.92
71043;BME280;58696;52.134;5.500;2023-02-19T08:33:42;102353.59;;;8.64;96.79
71043;BME280;58696;52.134;5.500;2023-02-19T08:36:11;102353.59;;;8.64;96.80
71043;BME280;58696;52.134;5.500;2023-02-19T08:38:45;102354.00;;;8.59;97.06
71043;BME280;58696;52.134;5.500;2023-02-19T08:41:12;102360.03;;;8.58;97.03
71043;BME280;58696;52.134;5.500;2023-02-19T08:43:40;102371.94;;;8.59;97.10
71043;BME280;58696;52.134;5.500;2023-02-19T08:46:07;102375.41;;;8.58;97.14
71043;BME280;58696;52.134;5.500;2023-02-19T08:48:39;102377.06;;;8.59;97.22
71043;BME280;58696;52.134;5.500;2023-02-19T08:51:08;102382.06;;;8.61;97.33
71043;BME280;58696;52.134;5.500;2023-02-19T08:53:39;102380.06;;;8.64;97.41
71043;BME280;58696;52.134;5.500;2023-02-19T08:56:11;102366.81;;;8.69;97.39
71043;BME280;58696;52.134;5.500;2023-02-19T08:58:39;102369.78;;;8.74;97.47
71043;BME280;58696;52.134;5.500;2023-02-19T09:01:11;102376.16;;;8.70;97.43
71043;BME280;58696;52.134;5.500;2023-02-19T09:03:41;102377.88;;;8.69;97.44
71043;BME280;58696;52.134;5.500;2023-02-19T09:06:18;102378.56;;;8.72;97.45
71043;BME280;58696;52.134;5.500;2023-02-19T09:08:47;102372.09;;;8.67;97.28
71043;BME280;58696;52.134;5.500;2023-02-19T09:11:15;102371.84;;;8.71;97.46
71043;BME280;58696;52.134;5.500;2023-02-19T09:13:42;102384.94;;;8.77;97.45
71043;BME280;58696;52.134;5.500;2023-02-19T09:16:12;102386.41;;;8.80;97.19
71043;BME280;58696;52.134;5.500;2023-02-19T09:18:38;102385.34;;;8.82;97.12
71043;BME280;58696;52.134;5.500;2023-02-19T09:21:05;102404.13;;;8.92;97.13
71043;BME280;58696;52.134;5.500;2023-02-19T09:23:33;102398.19;;;8.92;97.08
71043;BME280;58696;52.134;5.500;2023-02-19T09:26:01;102397.50;;;8.90;97.12
71043;BME280;58696;52.134;5.500;2023-02-19T09:28:32;102403.84;;;8.95;97.06
71043;BME280;58696;52.134;5.500;2023-02-19T09:31:07;102419.81;;;9.09;96.76
71043;BME280;58696;52.134;5.500;2023-02-19T09:33:34;102419.28;;;9.15;96.52
71043;BME280;58696;52.134;5.500;2023-02-19T09:36:04;102432.50;;;9.10;96.36
71043;BME280;58696;52.134;5.500;2023-02-19T09:38:33;102431.53;;;9.11;96.32
71043;BME280;58696;52.134;5.500;2023-02-19T09:41:26;102436.66;;;9.02;96.13
71043;BME280;58696;52.134;5.500;2023-02-19T09:43:58;102451.22;;;9.01;96.22
71043;BME280;58696;52.134;5.500;2023-02-19T09:46:31;102451.50;;;9.08;96.16
71043;BME280;58696;52.134;5.500;2023-02-19T09:49:04;102463.66;;;9.06;95.88
71043;BME280;58696;52.134;5.500;2023-02-19T09:51:40;102470.78;;;9.02;96.02
71043;BME280;58696;52.134;5.500;2023-02-19T09:54:16;102466.50;;;9.03;95.70
71043;BME280;58696;52.134;5.500;2023-02-19T09:56:52;102475.38;;;8.99;95.57
71043;BME280;58696;52.134;5.500;2023-02-19T09:59:23;102475.91;;;8.92;95.34
71043;BME280;58696;52.134;5.500;2023-02-19T10:02:15;102479.09;;;8.85;95.40
71043;BME280;58696;52.134;5.500;2023-02-19T10:04:46;102488.28;;;8.78;95.36
71043;BME280;58696;52.134;5.500;2023-02-19T10:07:22;102498.84;;;8.54;94.57
71043;BME280;58696;52.134;5.500;2023-02-19T10:09:59;102503.38;;;8.29;94.98
71043;BME280;58696;52.134;5.500;2023-02-19T10:12:30;102510.44;;;8.16;95.16
71043;BME280;58696;52.134;5.500;2023-02-19T10:15:19;102522.09;;;8.09;95.54
71043;BME280;58696;52.134;5.500;2023-02-19T10:17:50;102523.03;;;8.08;95.75
71043;BME280;58696;52.134;5.500;2023-02-19T10:20:19;102531.78;;;8.05;95.75
71043;BME280;58696;52.134;5.500;2023-02-19T10:23:04;102542.03;;;8.05;96.13
71043;BME280;58696;52.134;5.500;2023-02-19T10:25:34;102546.22;;;8.06;96.27
71043;BME280;58696;52.134;5.500;2023-02-19T10:28:03;102552.66;;;8.01;96.29
71043;BME280;58696;52.134;5.500;2023-02-19T10:30:33;102556.25;;;7.98;96.25
71043;BME280;58696;52.134;5.500;2023-02-19T10:33:08;102556.38;;;7.97;96.08
71043;BME280;58696;52.134;5.500;2023-02-19T10:38:44;102569.19;;;7.97;96.05
71043;BME280;58696;52.134;5.500;2023-02-19T10:41:15;102559.50;;;8.00;96.11
71043;BME280;58696;52.134;5.500;2023-02-19T10:43:55;102561.44;;;8.08;96.28
71043;BME280;58696;52.134;5.500;2023-02-19T10:46:33;102566.84;;;8.26;96.28
71043;BME280;58696;52.134;5.500;2023-02-19T10:49:03;102567.25;;;8.42;96.04
71043;BME280;58696;52.134;5.500;2023-02-19T10:51:34;102569.25;;;8.38;95.96
71043;BME280;58696;52.134;5.500;2023-02-19T10:56:46;102573.63;;;8.48;95.84
71043;BME280;58696;52.134;5.500;2023-02-19T10:59:24;102567.00;;;8.45;95.50
71043;BME280;58696;52.134;5.500;2023-02-19T11:04:21;102556.66;;;8.35;95.14
71043;BME280;58696;52.134;5.500;2023-02-19T11:06:50;102547.69;;;8.41;94.94
71043;BME280;58696;52.134;5.500;2023-02-19T11:09:27;102545.13;;;8.41;94.69
71043;BME280;58696;52.134;5.500;2023-02-19T11:11:56;102555.50;;;8.39;94.79
71043;BME280;58696;52.134;5.500;2023-02-19T11:14:26;102555.69;;;8.48;94.61
71043;BME280;58696;52.134;5.500;2023-02-19T11:16:56;102569.81;;;8.42;94.55
71043;BME280;58696;52.134;5.500;2023-02-19T11:21:57;102568.63;;;8.46;94.44
71043;BME280;58696;52.134;5.500;2023-02-19T11:24:37;102573.91;;;8.33;94.28
71043;BME280;58696;52.134;5.500;2023-02-19T11:27:16;102571.50;;;8.21;94.27
71043;BME280;58696;52.134;5.500;2023-02-19T11:29:43;102571.28;;;8.24;94.55
71043;BME280;58696;52.134;5.500;2023-02-19T11:34:47;102568.94;;;8.21;94.89
71043;BME280;58696;52.134;5.500;2023-02-19T11:37:22;102571.34;;;8.12;95.09
71043;BME280;58696;52.134;5.500;2023-02-19T11:39:50;102575.78;;;8.10;95.28
71043;BME280;58696;52.134;5.500;2023-02-19T11:42:44;102574.91;;;8.21;95.37
71043;BME280;58696;52.134;5.500;2023-02-19T11:45:39;102587.81;;;8.20;95.41
71043;BME280;58696;52.134;5.500;2023-02-19T11:54:17;102586.06;;;7.99;95.31
71043;BME280;58696;52.134;5.500;2023-02-19T11:56:49;102581.44;;;7.82;95.31
71043;BME280;58696;52.134;5.500;2023-02-19T11:59:33;102586.81;;;7.79;95.67
71043;BME280;58696;52.134;5.500;2023-02-19T12:02:18;102583.44;;;7.78;95.49
71043;BME280;58696;52.134;5.500;2023-02-19T12:10:37;102585.75;;;7.81;95.55
71043;BME280;58696;52.134;5.500;2023-02-19T12:15:59;102596.59;;;7.74;95.02
71043;BME280;58696;52.134;5.500;2023-02-19T12:21:13;102592.50;;;7.71;95.07
71043;BME280;58696;52.134;5.500;2023-02-19T12:24:10;102595.88;;;7.72;95.05
71043;BME280;58696;52.134;5.500;2023-02-19T12:27:18;102592.47;;;7.82;94.96
71043;BME280;58696;52.134;5.500;2023-02-19T12:30:02;102597.25;;;7.87;94.75
71043;BME280;58696;52.134;5.500;2023-02-19T12:33:10;102590.28;;;7.89;94.82
71043;BME280;58696;52.134;5.500;2023-02-19T12:38:30;102601.91;;;7.82;94.52
71043;BME280;58696;52.134;5.500;2023-02-19T12:43:36;102618.69;;;7.63;94.07
71043;BME280;58696;52.134;5.500;2023-02-19T12:46:15;102620.22;;;7.55;93.62
71043;BME280;58696;52.134;5.500;2023-02-19T12:51:49;102637.56;;;7.29;93.90
71043;BME280;58696;52.134;5.500;2023-02-19T12:54:26;102633.25;;;7.18;94.26
71043;BME280;58696;52.134;5.500;2023-02-19T12:57:08;102629.19;;;7.16;94.46
71043;BME280;58696;52.134;5.500;2023-02-19T13:02:24;102648.97;;;7.36;94.22
71043;BME280;58696;52.134;5.500;2023-02-19T13:07:29;102649.88;;;7.24;93.26
71043;BME280;58696;52.134;5.500;2023-02-19T13:12:35;102660.59;;;7.29;93.01
71043;BME280;58696;52.134;5.500;2023-02-19T13:15:16;102666.59;;;7.39;93.11
71043;BME280;58696;52.134;5.500;2023-02-19T13:17:52;102669.16;;;7.39;93.13
71043;BME280;58696;52.134;5.500;2023-02-19T13:20:38;102670.00;;;7.40;93.13
71043;BME280;58696;52.134;5.500;2023-02-19T13:23:28;102681.97;;;7.39;93.02
71043;BME280;58696;52.134;5.500;2023-02-19T13:37:11;102687.28;;;7.14;92.96
71043;BME280;58696;52.134;5.500;2023-02-19T13:39:45;102687.97;;;7.16;92.68
71043;BME280;58696;52.134;5.500;2023-02-19T13:42:34;102687.06;;;7.17;92.70
71043;BME280;58696;52.134;5.500;2023-02-19T13:45:04;102691.47;;;7.15;92.41
71043;BME280;58696;52.134;5.500;2023-02-19T13:50:34;102700.44;;;7.20;92.79
71043;BME280;58696;52.134;5.500;2023-02-19T14:27:48;102694.31;;;7.56;88.56
71043;BME280;58696;52.134;5.500;2023-02-19T14:30:15;102701.41;;;7.64;88.73
71043;BME280;58696;52.134;5.500;2023-02-19T14:32:44;102696.41;;;7.74;88.94
71043;BME280;58696;52.134;5.500;2023-02-19T14:35:18;102688.38;;;7.78;88.41
71043;BME280;58696;52.134;5.500;2023-02-19T14:37:47;102690.00;;;7.79;88.75
71043;BME280;58696;52.134;5.500;2023-02-19T14:40:28;102694.19;;;7.80;88.33
71043;BME280;58696;52.134;5.500;2023-02-19T14:43:00;102673.84;;;7.79;88.03
71043;BME280;58696;52.134;5.500;2023-02-19T14:45:28;102674.75;;;7.78;87.84
71043;BME280;58696;52.134;5.500;2023-02-19T14:47:57;102657.63;;;7.89;88.35
71043;BME280;58696;52.134;5.500;2023-02-19T14:50:29;102665.78;;;7.95;88.83
71043;BME280;58696;52.134;5.500;2023-02-19T14:53:02;102663.44;;;7.91;88.22
71043;BME280;58696;52.134;5.500;2023-02-19T14:55:33;102664.16;;;7.82;87.41
71043;BME280;58696;52.134;5.500;2023-02-19T14:58:19;102668.72;;;7.79;86.75
71043;BME280;58696;52.134;5.500;2023-02-19T15:00:52;102653.09;;;7.82;86.07
71043;BME280;58696;52.134;5.500;2023-02-19T15:03:41;102642.19;;;7.80;85.31
71043;BME280;58696;52.134;5.500;2023-02-19T15:06:14;102637.75;;;7.82;84.79
71043;BME280;58696;52.134;5.500;2023-02-19T15:08:49;102654.28;;;7.89;85.07
71043;BME280;58696;52.134;5.500;2023-02-19T15:11:22;102644.03;;;7.89;85.01
71043;BME280;58696;52.134;5.500;2023-02-19T15:13:56;102644.84;;;7.89;85.19
71043;BME280;58696;52.134;5.500;2023-02-19T15:16:25;102655.63;;;7.93;85.19
71043;BME280;58696;52.134;5.500;2023-02-19T15:18:53;102668.44;;;7.93;84.72
71043;BME280;58696;52.134;5.500;2023-02-19T15:21:27;102679.16;;;7.87;84.80
71043;BME280;58696;52.134;5.500;2023-02-19T15:24:01;102674.28;;;7.84;84.44
71043;BME280;58696;52.134;5.500;2023-02-19T15:26:40;102701.72;;;7.82;84.11
71043;BME280;58696;52.134;5.500;2023-02-19T15:29:10;102699.16;;;7.82;84.21
71043;BME280;58696;52.134;5.500;2023-02-19T15:31:51;102699.16;;;7.82;84.37
71043;BME280;58696;52.134;5.500;2023-02-19T15:34:29;102709.41;;;7.82;84.49